sensor_id;sensor_type;location;lat;lon;timestamp;pressure;altitude;pressure_sealevel;temperature
16956;BMP180;8594;52.052;8.354;2022-09-24T00:00:43;100372.00;;;17.10
16956;BMP180;8594;52.052;8.354;2022-09-24T00:03:10;100385.00;;;17.70
16956;BMP180;8594;52.052;8.354;2022-09-24T00:05:38;100372.00;;;17.90
16956;BMP180;8594;52.052;8.354;2022-09-24T00:08:07;100377.00;;;17.80
16956;BMP180;8594;52.052;8.354;2022-09-24T00:10:36;100377.00;;;18.00
16956;BMP180;8594;52.052;8.354;2022-09-24T00:13:04;100368.00;;;17.80
16956;BMP180;8594;52.052;8.354;2022-09-24T00:15:35;100368.00;;;18.00
16956;BMP180;8594;52.052;8.354;2022-09-24T00:18:03;100363.00;;;17.60
16956;BMP180;8594;52.052;8.354;2022-09-24T00:20:30;100364.00;;;17.60
16956;BMP180;8594;52.052;8.354;2022-09-24T00:22:57;100377.00;;;18.00
16956;BMP180;8594;52.052;8.354;2022-09-24T00:25:25;100369.00;;;18.20
16956;BMP180;8594;52.052;8.354;2022-09-24T00:28:11;100366.00;;;18.20
16956;BMP180;8594;52.052;8.354;2022-09-24T00:30:40;100361.00;;;18.10
16956;BMP180;8594;52.052;8.354;2022-09-24T00:33:08;100372.00;;;17.80
16956;BMP180;8594;52.052;8.354;2022-09-24T00:35:36;100366.00;;;17.90
16956;BMP180;8594;52.052;8.354;2022-09-24T00:38:04;100366.00;;;17.70
16956;BMP180;8594;52.052;8.354;2022-09-24T00:40:36;100375.00;;;17.70
16956;BMP180;8594;52.052;8.354;2022-09-24T00:43:25;100370.00;;;17.40
16956;BMP180;8594;52.052;8.354;2022-09-24T00:45:56;100366.00;;;17.50
16956;BMP180;8594;52.052;8.354;2022-09-24T00:48:24;100365.00;;;17.50
16956;BMP180;8594;52.052;8.354;2022-09-24T00:50:51;100364.00;;;17.50
16956;BMP180;8594;52.052;8.354;2022-09-24T00:53:21;100360.00;;;17.60
16956;BMP180;8594;52.052;8.354;2022-09-24T00:55:55;100364.00;;;17.80
16956;BMP180;8594;52.052;8.354;2022-09-24T00:58:23;100363.00;;;18.00
16956;BMP180;8594;52.052;8.354;2022-09-24T01:00:57;100360.00;;;17.90
16956;BMP180;8594;52.052;8.354;2022-09-24T01:03:26;100361.00;;;17.80
16956;BMP180;8594;52.052;8.354;2022-09-24T01:05:55;100362.00;;;17.40
16956;BMP180;8594;52.052;8.354;2022-09-24T01:08:23;100360.00;;;17.50
16956;BMP180;8594;52.052;8.354;2022-09-24T01:11:06;100358.00;;;17.60
16956;BMP180;8594;52.052;8.354;2022-09-24T01:13:55;100358.00;;;17.60
16956;BMP180;8594;52.052;8.354;2022-09-24T01:16:33;100361.00;;;17.70
16956;BMP180;8594;52.052;8.354;2022-09-24T01:19:14;100357.00;;;17.60
16956;BMP180;8594;52.052;8.354;2022-09-24T01:21:49;100361.00;;;17.30
16956;BMP180;8594;52.052;8.354;2022-09-24T01:24:38;100359.00;;;17.30
16956;BMP180;8594;52.052;8.354;2022-09-24T01:27:16;100346.00;;;17.20
16956;BMP180;8594;52.052;8.354;2022-09-24T01:29:59;100349.00;;;17.40
16956;BMP180;8594;52.052;8.354;2022-09-24T01:32:33;100354.00;;;17.60
16956;BMP180;8594;52.052;8.354;2022-09-24T01:35:10;100351.00;;;17.60
16956;BMP180;8594;52.052;8.354;2022-09-24T01:37:43;100350.00;;;17.50
16956;BMP180;8594;52.052;8.354;2022-09-24T01:40:11;100353.00;;;17.40
16956;BMP180;8594;52.052;8.354;2022-09-24T01:42:42;100352.00;;;17.50
16956;BMP180;8594;52.052;8.354;2022-09-24T01:45:13;100351.00;;;17.40
16956;BMP180;8594;52.052;8.354;2022-09-24T01:47:42;100350.00;;;17.40
16956;BMP180;8594;52.052;8.354;2022-09-24T01:50:12;100344.00;;;16.80
16956;BMP180;8594;52.052;8.354;2022-09-24T01:52:48;100337.00;;;17.00
16956;BMP180;8594;52.052;8.354;2022-09-24T01:55:21;100331.00;;;17.10
16956;BMP180;8594;52.052;8.354;2022-09-24T01:57:53;100335.00;;;17.20
16956;BMP180;8594;52.052;8.354;2022-09-24T02:00:23;100331.00;;;17.20
16956;BMP180;8594;52.052;8.354;2022-09-24T02:02:57;100335.00;;;17.10
16956;BMP180;8594;52.052;8.354;2022-09-24T02:05:31;100335.00;;;16.90
16956;BMP180;8594;52.052;8.354;2022-09-24T02:08:05;100330.00;;;17.50
16956;BMP180;8594;52.052;8.354;2022-09-24T02:10:41;100316.00;;;17.60
16956;BMP180;8594;52.052;8.354;2022-09-24T02:13:13;100314.00;;;17.80
16956;BMP180;8594;52.052;8.354;2022-09-24T02:15:48;100312.00;;;18.00
16956;BMP180;8594;52.052;8.354;2022-09-24T02:18:20;100318.00;;;18.20
16956;BMP180;8594;52.052;8.354;2022-09-24T02:20:51;100314.00;;;17.80
16956;BMP180;8594;52.052;8.354;2022-09-24T02:23:19;100323.00;;;17.00
16956;BMP180;8594;52.052;8.354;2022-09-24T02:25:52;100322.00;;;17.00
16956;BMP180;8594;52.052;8.354;2022-09-24T02:28:19;100320.00;;;17.00
16956;BMP180;8594;52.052;8.354;2022-09-24T02:30:52;100320.00;;;16.90
16956;BMP180;8594;52.052;8.354;2022-09-24T02:33:23;100324.00;;;17.00
16956;BMP180;8594;52.052;8.354;2022-09-24T02:36:09;100324.00;;;17.00
16956;BMP180;8594;52.052;8.354;2022-09-24T02:38:37;100325.00;;;17.00
16956;BMP180;8594;52.052;8.354;2022-09-24T02:41:05;100331.00;;;16.80
16956;BMP180;8594;52.052;8.354;2022-09-24T02:43:32;100321.00;;;16.90
16956;BMP180;8594;52.052;8.354;2022-09-24T02:46:01;100320.00;;;16.90
16956;BMP180;8594;52.052;8.354;2022-09-24T02:48:28;100320.00;;;17.20
16956;BMP180;8594;52.052;8.354;2022-09-24T02:50:55;100314.00;;;17.20
16956;BMP180;8594;52.052;8.354;2022-09-24T02:53:22;100314.00;;;17.00
16956;BMP180;8594;52.052;8.354;2022-09-24T02:55:48;100311.00;;;17.10
16956;BMP180;8594;52.052;8.354;2022-09-24T02:58:15;100308.00;;;17.00
16956;BMP180;8594;52.052;8.354;2022-09-24T03:00:42;100310.00;;;17.10
16956;BMP180;8594;52.052;8.354;2022-09-24T03:03:10;100320.00;;;16.90
16956;BMP180;8594;52.052;8.354;2022-09-24T03:05:37;100311.00;;;17.10
16956;BMP180;8594;52.052;8.354;2022-09-24T03:08:04;100303.00;;;17.20
16956;BMP180;8594;52.052;8.354;2022-09-24T03:10:32;100300.00;;;17.10
16956;BMP180;8594;52.052;8.354;2022-09-24T03:12:59;100303.00;;;17.10
16956;BMP180;8594;52.052;8.354;2022-09-24T03:15:25;100302.00;;;17.00
16956;BMP180;8594;52.052;8.354;2022-09-24T03:17:54;100302.00;;;17.00
16956;BMP180;8594;52.052;8.354;2022-09-24T03:20:22;100303.00;;;16.80
16956;BMP180;8594;52.052;8.354;2022-09-24T03:22:50;100308.00;;;16.80
16956;BMP180;8594;52.052;8.354;2022-09-24T03:25:17;100298.00;;;16.70
16956;BMP180;8594;52.052;8.354;2022-09-24T03:27:44;100305.00;;;16.90
16956;BMP180;8594;52.052;8.354;2022-09-24T03:30:12;100297.00;;;16.60
16956;BMP180;8594;52.052;8.354;2022-09-24T03:32:56;100294.00;;;16.00
16956;BMP180;8594;52.052;8.354;2022-09-24T03:35:25;100290.00;;;16.10
16956;BMP180;8594;52.052;8.354;2022-09-24T03:37:52;100293.00;;;17.20
16956;BMP180;8594;52.052;8.354;2022-09-24T03:40:19;100288.00;;;16.90
16956;BMP180;8594;52.052;8.354;2022-09-24T03:42:45;100280.00;;;16.70
16956;BMP180;8594;52.052;8.354;2022-09-24T03:45:12;100275.00;;;16.10
16956;BMP180;8594;52.052;8.354;2022-09-24T03:47:39;100262.00;;;16.70
16956;BMP180;8594;52.052;8.354;2022-09-24T03:50:07;100271.00;;;16.70
16956;BMP180;8594;52.052;8.354;2022-09-24T03:52:38;100270.00;;;16.40
16956;BMP180;8594;52.052;8.354;2022-09-24T03:55:06;100267.00;;;16.30
16956;BMP180;8594;52.052;8.354;2022-09-24T03:57:33;100262.00;;;16.40
16956;BMP180;8594;52.052;8.354;2022-09-24T04:00:00;100272.00;;;16.60
16956;BMP180;8594;52.052;8.354;2022-09-24T04:02:27;100262.00;;;16.30
16956;BMP180;8594;52.052;8.354;2022-09-24T04:04:54;100269.00;;;16.30
16956;BMP180;8594;52.052;8.354;2022-09-24T04:07:21;100267.00;;;16.40
16956;BMP180;8594;52.052;8.354;2022-09-24T04:09:49;100270.00;;;16.30
16956;BMP180;8594;52.052;8.354;2022-09-24T04:12:15;100257.00;;;16.40
16956;BMP180;8594;52.052;8.354;2022-09-24T04:14:42;100266.00;;;16.50
16956;BMP180;8594;52.052;8.354;2022-09-24T04:17:09;100267.00;;;16.50
16956;BMP180;8594;52.052;8.354;2022-09-24T04:19:36;100257.00;;;16.30
16956;BMP180;8594;52.052;8.354;2022-09-24T04:22:04;100258.00;;;15.80
16956;BMP180;8594;52.052;8.354;2022-09-24T04:24:31;100260.00;;;16.00
16956;BMP180;8594;52.052;8.354;2022-09-24T04:27:00;100265.00;;;16.10
16956;BMP180;8594;52.052;8.354;2022-09-24T04:29:26;100262.00;;;16.10
16956;BMP180;8594;52.052;8.354;2022-09-24T04:31:53;100256.00;;;16.10
16956;BMP180;8594;52.052;8.354;2022-09-24T04:34:20;100257.00;;;16.10
16956;BMP180;8594;52.052;8.354;2022-09-24T04:36:47;100258.00;;;16.10
16956;BMP180;8594;52.052;8.354;2022-09-24T04:39:14;100250.00;;;16.20
16956;BMP180;8594;52.052;8.354;2022-09-24T04:41:41;100255.00;;;16.00
16956;BMP180;8594;52.052;8.354;2022-09-24T04:44:09;100253.00;;;16.20
16956;BMP180;8594;52.052;8.354;2022-09-24T04:46:38;100254.00;;;16.40
16956;BMP180;8594;52.052;8.354;2022-09-24T04:49:05;100254.00;;;16.20
16956;BMP180;8594;52.052;8.354;2022-09-24T04:51:34;100260.00;;;16.10
16956;BMP180;8594;52.052;8.354;2022-09-24T04:54:01;100262.00;;;16.00
16956;BMP180;8594;52.052;8.354;2022-09-24T04:56:28;100265.00;;;16.00
16956;BMP180;8594;52.052;8.354;2022-09-24T04:58:55;100267.00;;;15.90
16956;BMP180;8594;52.052;8.354;2022-09-24T05:01:24;100270.00;;;15.90
16956;BMP180;8594;52.052;8.354;2022-09-24T05:03:51;100277.00;;;16.00
16956;BMP180;8594;52.052;8.354;2022-09-24T05:06:18;100282.00;;;16.00
16956;BMP180;8594;52.052;8.354;2022-09-24T05:08:45;100280.00;;;15.90
16956;BMP180;8594;52.052;8.354;2022-09-24T05:11:12;100280.00;;;16.00
16956;BMP180;8594;52.052;8.354;2022-09-24T05:13:38;100273.00;;;16.20
16956;BMP180;8594;52.052;8.354;2022-09-24T05:16:05;100269.00;;;15.80
16956;BMP180;8594;52.052;8.354;2022-09-24T05:18:33;100279.00;;;15.70
16956;BMP180;8594;52.052;8.354;2022-09-24T05:21:00;100280.00;;;15.70
16956;BMP180;8594;52.052;8.354;2022-09-24T05:23:27;100283.00;;;15.90
16956;BMP180;8594;52.052;8.354;2022-09-24T05:25:54;100287.00;;;16.00
16956;BMP180;8594;52.052;8.354;2022-09-24T05:28:38;100287.00;;;15.90
16956;BMP180;8594;52.052;8.354;2022-09-24T05:31:05;100288.00;;;15.80
16956;BMP180;8594;52.052;8.354;2022-09-24T05:33:35;100289.00;;;15.90
16956;BMP180;8594;52.052;8.354;2022-09-24T05:36:02;100292.00;;;16.00
16956;BMP180;8594;52.052;8.354;2022-09-24T05:38:29;100298.00;;;15.90
16956;BMP180;8594;52.052;8.354;2022-09-24T05:40:57;100292.00;;;16.30
16956;BMP180;8594;52.052;8.354;2022-09-24T05:43:24;100285.00;;;16.00
16956;BMP180;8594;52.052;8.354;2022-09-24T05:45:52;100288.00;;;16.50
16956;BMP180;8594;52.052;8.354;2022-09-24T05:48:19;100293.00;;;16.50
16956;BMP180;8594;52.052;8.354;2022-09-24T05:50:48;100301.00;;;15.90
16956;BMP180;8594;52.052;8.354;2022-09-24T05:53:21;100296.00;;;16.00
16956;BMP180;8594;52.052;8.354;2022-09-24T05:55:48;100293.00;;;15.80
16956;BMP180;8594;52.052;8.354;2022-09-24T05:58:15;100297.00;;;15.80
16956;BMP180;8594;52.052;8.354;2022-09-24T06:00:42;100298.00;;;15.30
16956;BMP180;8594;52.052;8.354;2022-09-24T06:03:12;100293.00;;;15.20
16956;BMP180;8594;52.052;8.354;2022-09-24T06:05:43;100308.00;;;15.90
16956;BMP180;8594;52.052;8.354;2022-09-24T06:08:14;100305.00;;;15.70
16956;BMP180;8594;52.052;8.354;2022-09-24T06:10:41;100301.00;;;15.90
16956;BMP180;8594;52.052;8.354;2022-09-24T06:13:10;100309.00;;;15.90
16956;BMP180;8594;52.052;8.354;2022-09-24T06:15:38;100301.00;;;15.70
16956;BMP180;8594;52.052;8.354;2022-09-24T06:18:06;100302.00;;;15.80
16956;BMP180;8594;52.052;8.354;2022-09-24T06:20:33;100300.00;;;15.90
16956;BMP180;8594;52.052;8.354;2022-09-24T06:23:00;100304.00;;;16.00
16956;BMP180;8594;52.052;8.354;2022-09-24T06:25:29;100302.00;;;15.80
16956;BMP180;8594;52.052;8.354;2022-09-24T06:27:58;100296.00;;;15.70
16956;BMP180;8594;52.052;8.354;2022-09-24T06:30:27;100306.00;;;16.30
16956;BMP180;8594;52.052;8.354;2022-09-24T06:32:54;100303.00;;;16.10
16956;BMP180;8594;52.052;8.354;2022-09-24T06:35:21;100299.00;;;16.10
16956;BMP180;8594;52.052;8.354;2022-09-24T06:37:51;100304.00;;;16.10
16956;BMP180;8594;52.052;8.354;2022-09-24T06:40:18;100304.00;;;15.90
16956;BMP180;8594;52.052;8.354;2022-09-24T06:42:50;100298.00;;;16.00
16956;BMP180;8594;52.052;8.354;2022-09-24T06:45:17;100294.00;;;15.90
16956;BMP180;8594;52.052;8.354;2022-09-24T06:47:51;100297.00;;;16.00
16956;BMP180;8594;52.052;8.354;2022-09-24T06:50:19;100299.00;;;16.30
16956;BMP180;8594;52.052;8.354;2022-09-24T06:52:46;100296.00;;;16.40
16956;BMP180;8594;52.052;8.354;2022-09-24T06:55:13;100300.00;;;16.30
16956;BMP180;8594;52.052;8.354;2022-09-24T06:57:40;100298.00;;;16.50
16956;BMP180;8594;52.052;8.354;2022-09-24T07:00:10;100295.00;;;16.60
16956;BMP180;8594;52.052;8.354;2022-09-24T07:02:39;100303.00;;;16.60
16956;BMP180;8594;52.052;8.354;2022-09-24T07:05:07;100300.00;;;16.70
16956;BMP180;8594;52.052;8.354;2022-09-24T07:07:35;100294.00;;;16.70
16956;BMP180;8594;52.052;8.354;2022-09-24T07:10:05;100302.00;;;16.20
16956;BMP180;8594;52.052;8.354;2022-09-24T07:12:34;100298.00;;;16.30
16956;BMP180;8594;52.052;8.354;2022-09-24T07:15:01;100292.00;;;16.00
16956;BMP180;8594;52.052;8.354;2022-09-24T07:17:30;100296.00;;;16.10
16956;BMP180;8594;52.052;8.354;2022-09-24T07:19:56;100304.00;;;16.80
16956;BMP180;8594;52.052;8.354;2022-09-24T07:22:24;100301.00;;;16.20
16956;BMP180;8594;52.052;8.354;2022-09-24T07:24:51;100295.00;;;16.60
16956;BMP180;8594;52.052;8.354;2022-09-24T07:27:18;100293.00;;;16.80
16956;BMP180;8594;52.052;8.354;2022-09-24T07:29:45;100299.00;;;16.40
16956;BMP180;8594;52.052;8.354;2022-09-24T07:32:14;100308.00;;;16.80
16956;BMP180;8594;52.052;8.354;2022-09-24T07:34:44;100301.00;;;16.80
16956;BMP180;8594;52.052;8.354;2022-09-24T07:37:11;100300.00;;;16.60
16956;BMP180;8594;52.052;8.354;2022-09-24T07:39:38;100299.00;;;16.20
16956;BMP180;8594;52.052;8.354;2022-09-24T07:42:05;100300.00;;;16.70
16956;BMP180;8594;52.052;8.354;2022-09-24T07:44:32;100301.00;;;16.70
16956;BMP180;8594;52.052;8.354;2022-09-24T07:47:01;100298.00;;;16.50
16956;BMP180;8594;52.052;8.354;2022-09-24T07:49:28;100300.00;;;16.80
16956;BMP180;8594;52.052;8.354;2022-09-24T07:51:58;100309.00;;;16.80
16956;BMP180;8594;52.052;8.354;2022-09-24T07:54:26;100311.00;;;16.90
16956;BMP180;8594;52.052;8.354;2022-09-24T07:56:54;100302.00;;;17.10
16956;BMP180;8594;52.052;8.354;2022-09-24T07:59:21;100310.00;;;17.10
16956;BMP180;8594;52.052;8.354;2022-09-24T08:01:49;100314.00;;;17.10
16956;BMP180;8594;52.052;8.354;2022-09-24T08:04:16;100317.00;;;17.30
16956;BMP180;8594;52.052;8.354;2022-09-24T08:06:43;100315.00;;;17.20
16956;BMP180;8594;52.052;8.354;2022-09-24T08:09:13;100313.00;;;17.00
16956;BMP180;8594;52.052;8.354;2022-09-24T08:11:41;100319.00;;;16.80
16956;BMP180;8594;52.052;8.354;2022-09-24T08:14:08;100323.00;;;16.60
16956;BMP180;8594;52.052;8.354;2022-09-24T08:16:35;100326.00;;;16.60
16956;BMP180;8594;52.052;8.354;2022-09-24T08:19:04;100326.00;;;16.70
16956;BMP180;8594;52.052;8.354;2022-09-24T08:21:30;100325.00;;;16.90
16956;BMP180;8594;52.052;8.354;2022-09-24T08:23:58;100325.00;;;16.50
16956;BMP180;8594;52.052;8.354;2022-09-24T08:26:26;100326.00;;;16.80
16956;BMP180;8594;52.052;8.354;2022-09-24T08:28:53;100325.00;;;17.30
16956;BMP180;8594;52.052;8.354;2022-09-24T08:31:20;100320.00;;;17.10
16956;BMP180;8594;52.052;8.354;2022-09-24T08:33:46;100333.00;;;17.10
16956;BMP180;8594;52.052;8.354;2022-09-24T08:36:15;100331.00;;;17.00
16956;BMP180;8594;52.052;8.354;2022-09-24T08:38:43;100321.00;;;17.00
16956;BMP180;8594;52.052;8.354;2022-09-24T08:41:35;100330.00;;;17.60
16956;BMP180;8594;52.052;8.354;2022-09-24T08:44:14;100334.00;;;16.70
16956;BMP180;8594;52.052;8.354;2022-09-24T08:47:14;100336.00;;;17.30
16956;BMP180;8594;52.052;8.354;2022-09-24T08:49:54;100336.00;;;17.10
16956;BMP180;8594;52.052;8.354;2022-09-24T08:52:38;100332.00;;;17.00
16956;BMP180;8594;52.052;8.354;2022-09-24T08:55:13;100338.00;;;17.00
16956;BMP180;8594;52.052;8.354;2022-09-24T08:57:50;100338.00;;;16.90
16956;BMP180;8594;52.052;8.354;2022-09-24T09:00:20;100344.00;;;17.20
16956;BMP180;8594;52.052;8.354;2022-09-24T09:02:57;100351.00;;;17.00
16956;BMP180;8594;52.052;8.354;2022-09-24T09:05:49;100351.00;;;17.50
16956;BMP180;8594;52.052;8.354;2022-09-24T09:08:30;100350.00;;;17.60
16956;BMP180;8594;52.052;8.354;2022-09-24T09:11:02;100349.00;;;17.40
16956;BMP180;8594;52.052;8.354;2022-09-24T09:13:38;100348.00;;;17.50
16956;BMP180;8594;52.052;8.354;2022-09-24T09:16:21;100349.00;;;17.30
16956;BMP180;8594;52.052;8.354;2022-09-24T09:18:52;100348.00;;;17.30
16956;BMP180;8594;52.052;8.354;2022-09-24T09:21:29;100343.00;;;17.20
16956;BMP180;8594;52.052;8.354;2022-09-24T09:24:00;100347.00;;;17.50
16956;BMP180;8594;52.052;8.354;2022-09-24T09:26:28;100342.00;;;17.60
16956;BMP180;8594;52.052;8.354;2022-09-24T09:28:59;100348.00;;;17.70
16956;BMP180;8594;52.052;8.354;2022-09-24T09:31:41;100347.00;;;17.40
16956;BMP180;8594;52.052;8.354;2022-09-24T09:34:39;100353.00;;;17.30
16956;BMP180;8594;52.052;8.354;2022-09-24T09:37:23;100346.00;;;17.50
16956;BMP180;8594;52.052;8.354;2022-09-24T09:40:03;100356.00;;;17.80
16956;BMP180;8594;52.052;8.354;2022-09-24T09:42:36;100353.00;;;17.60
16956;BMP180;8594;52.052;8.354;2022-09-24T09:45:24;100355.00;;;17.60
16956;BMP180;8594;52.052;8.354;2022-09-24T09:47:55;100352.00;;;17.80
16956;BMP180;8594;52.052;8.354;2022-09-24T09:50:27;100346.00;;;17.80
16956;BMP180;8594;52.052;8.354;2022-09-24T09:52:55;100346.00;;;17.90
16956;BMP180;8594;52.052;8.354;2022-09-24T09:55:25;100349.00;;;18.10
16956;BMP180;8594;52.052;8.354;2022-09-24T09:57:52;100352.00;;;18.10
16956;BMP180;8594;52.052;8.354;2022-09-24T10:00:33;100352.00;;;18.10
16956;BMP180;8594;52.052;8.354;2022-09-24T10:03:01;100350.00;;;18.20
16956;BMP180;8594;52.052;8.354;2022-09-24T10:05:29;100348.00;;;18.20
16956;BMP180;8594;52.052;8.354;2022-09-24T10:07:56;100348.00;;;18.00
16956;BMP180;8594;52.052;8.354;2022-09-24T10:10:25;100341.00;;;18.20
16956;BMP180;8594;52.052;8.354;2022-09-24T10:12:54;100347.00;;;18.30
16956;BMP180;8594;52.052;8.354;2022-09-24T10:15:22;100351.00;;;18.40
16956;BMP180;8594;52.052;8.354;2022-09-24T10:17:53;100349.00;;;18.30
16956;BMP180;8594;52.052;8.354;2022-09-24T10:20:25;100339.00;;;18.60
16956;BMP180;8594;52.052;8.354;2022-09-24T10:22:57;100343.00;;;18.00
16956;BMP180;8594;52.052;8.354;2022-09-24T10:25:28;100337.00;;;18.40
16956;BMP180;8594;52.052;8.354;2022-09-24T10:27:59;100347.00;;;18.50
16956;BMP180;8594;52.052;8.354;2022-09-24T10:30:50;100351.00;;;18.50
16956;BMP180;8594;52.052;8.354;2022-09-24T10:33:20;100340.00;;;18.50
16956;BMP180;8594;52.052;8.354;2022-09-24T10:35:47;100344.00;;;18.60
16956;BMP180;8594;52.052;8.354;2022-09-24T10:38:17;100343.00;;;18.60
16956;BMP180;8594;52.052;8.354;2022-09-24T10:40:45;100343.00;;;18.60
16956;BMP180;8594;52.052;8.354;2022-09-24T10:43:17;100337.00;;;19.00
16956;BMP180;8594;52.052;8.354;2022-09-24T10:46:18;100347.00;;;18.70
16956;BMP180;8594;52.052;8.354;2022-09-24T10:49:05;100338.00;;;18.70
16956;BMP180;8594;52.052;8.354;2022-09-24T10:51:45;100343.00;;;19.00
16956;BMP180;8594;52.052;8.354;2022-09-24T10:54:39;100354.00;;;18.90
16956;BMP180;8594;52.052;8.354;2022-09-24T10:57:29;100344.00;;;19.20
16956;BMP180;8594;52.052;8.354;2022-09-24T11:00:07;100337.00;;;19.10
16956;BMP180;8594;52.052;8.354;2022-09-24T11:06:00;100349.00;;;19.00
16956;BMP180;8594;52.052;8.354;2022-09-24T11:08:52;100347.00;;;19.20
16956;BMP180;8594;52.052;8.354;2022-09-24T11:11:34;100350.00;;;19.10
16956;BMP180;8594;52.052;8.354;2022-09-24T11:14:22;100345.00;;;19.20
16956;BMP180;8594;52.052;8.354;2022-09-24T11:17:09;100352.00;;;19.70
16956;BMP180;8594;52.052;8.354;2022-09-24T11:20:15;100353.00;;;19.30
16956;BMP180;8594;52.052;8.354;2022-09-24T11:23:14;100344.00;;;19.30
16956;BMP180;8594;52.052;8.354;2022-09-24T11:25:50;100343.00;;;18.70
16956;BMP180;8594;52.052;8.354;2022-09-24T11:28:45;100346.00;;;19.00
16956;BMP180;8594;52.052;8.354;2022-09-24T11:31:29;100342.00;;;19.20
16956;BMP180;8594;52.052;8.354;2022-09-24T11:34:28;100335.00;;;19.50
16956;BMP180;8594;52.052;8.354;2022-09-24T11:37:23;100346.00;;;19.50
16956;BMP180;8594;52.052;8.354;2022-09-24T11:40:12;100340.00;;;19.30
16956;BMP180;8594;52.052;8.354;2022-09-24T11:42:59;100340.00;;;19.50
16956;BMP180;8594;52.052;8.354;2022-09-24T11:45:44;100338.00;;;19.50
16956;BMP180;8594;52.052;8.354;2022-09-24T11:48:45;100335.00;;;19.50
16956;BMP180;8594;52.052;8.354;2022-09-24T11:51:25;100341.00;;;19.90
16956;BMP180;8594;52.052;8.354;2022-09-24T11:54:01;100335.00;;;19.70
16956;BMP180;8594;52.052;8.354;2022-09-24T11:56:34;100337.00;;;20.10
16956;BMP180;8594;52.052;8.354;2022-09-24T11:59:15;100335.00;;;19.70
16956;BMP180;8594;52.052;8.354;2022-09-24T12:01:48;100331.00;;;19.50
16956;BMP180;8594;52.052;8.354;2022-09-24T12:04:20;100330.00;;;19.60
16956;BMP180;8594;52.052;8.354;2022-09-24T12:06:59;100332.00;;;19.20
16956;BMP180;8594;52.052;8.354;2022-09-24T12:09:34;100334.00;;;19.50
16956;BMP180;8594;52.052;8.354;2022-09-24T12:12:09;100334.00;;;19.20
16956;BMP180;8594;52.052;8.354;2022-09-24T12:14:48;100337.00;;;19.40
16956;BMP180;8594;52.052;8.354;2022-09-24T12:17:21;100331.00;;;19.50
16956;BMP180;8594;52.052;8.354;2022-09-24T12:19:55;100326.00;;;19.50
16956;BMP180;8594;52.052;8.354;2022-09-24T12:22:24;100326.00;;;19.60
16956;BMP180;8594;52.052;8.354;2022-09-24T12:24:54;100334.00;;;19.70
16956;BMP180;8594;52.052;8.354;2022-09-24T12:27:32;100330.00;;;19.50
16956;BMP180;8594;52.052;8.354;2022-09-24T12:30:14;100333.00;;;19.50
16956;BMP180;8594;52.052;8.354;2022-09-24T12:33:08;100332.00;;;19.60
16956;BMP180;8594;52.052;8.354;2022-09-24T12:35:54;100325.00;;;19.20
16956;BMP180;8594;52.052;8.354;2022-09-24T12:38:32;100335.00;;;19.50
16956;BMP180;8594;52.052;8.354;2022-09-24T12:41:24;100333.00;;;19.40
16956;BMP180;8594;52.052;8.354;2022-09-24T12:44:00;100322.00;;;19.40
16956;BMP180;8594;52.052;8.354;2022-09-24T12:46:33;100325.00;;;19.60
16956;BMP180;8594;52.052;8.354;2022-09-24T12:49:16;100331.00;;;19.80
16956;BMP180;8594;52.052;8.354;2022-09-24T12:51:43;100331.00;;;19.90
16956;BMP180;8594;52.052;8.354;2022-09-24T12:54:22;100320.00;;;20.00
16956;BMP180;8594;52.052;8.354;2022-09-24T12:57:10;100318.00;;;19.90
16956;BMP180;8594;52.052;8.354;2022-09-24T12:59:49;100322.00;;;19.70
16956;BMP180;8594;52.052;8.354;2022-09-24T13:02:19;100321.00;;;19.80
16956;BMP180;8594;52.052;8.354;2022-09-24T13:05:15;100326.00;;;19.70
16956;BMP180;8594;52.052;8.354;2022-09-24T13:07:55;100317.00;;;19.90
16956;BMP180;8594;52.052;8.354;2022-09-24T13:10:26;100311.00;;;20.00
16956;BMP180;8594;52.052;8.354;2022-09-24T13:12:54;100315.00;;;20.10
16956;BMP180;8594;52.052;8.354;2022-09-24T13:15:38;100308.00;;;19.90
16956;BMP180;8594;52.052;8.354;2022-09-24T13:18:19;100314.00;;;19.90
16956;BMP180;8594;52.052;8.354;2022-09-24T13:20:59;100312.00;;;19.90
16956;BMP180;8594;52.052;8.354;2022-09-24T13:23:45;100320.00;;;20.10
16956;BMP180;8594;52.052;8.354;2022-09-24T13:26:26;100315.00;;;20.20
16956;BMP180;8594;52.052;8.354;2022-09-24T13:28:56;100309.00;;;19.90
16956;BMP180;8594;52.052;8.354;2022-09-24T13:31:36;100314.00;;;20.20
16956;BMP180;8594;52.052;8.354;2022-09-24T13:34:16;100317.00;;;19.80
16956;BMP180;8594;52.052;8.354;2022-09-24T13:36:51;100306.00;;;20.20
16956;BMP180;8594;52.052;8.354;2022-09-24T13:39:29;100305.00;;;20.50
16956;BMP180;8594;52.052;8.354;2022-09-24T13:42:05;100307.00;;;20.20
16956;BMP180;8594;52.052;8.354;2022-09-24T13:44:36;100311.00;;;20.50
16956;BMP180;8594;52.052;8.354;2022-09-24T13:47:14;100307.00;;;20.10
16956;BMP180;8594;52.052;8.354;2022-09-24T13:49:45;100310.00;;;20.20
16956;BMP180;8594;52.052;8.354;2022-09-24T13:52:25;100308.00;;;20.10
16956;BMP180;8594;52.052;8.354;2022-09-24T13:54:57;100304.00;;;20.20
16956;BMP180;8594;52.052;8.354;2022-09-24T13:57:29;100312.00;;;20.20
16956;BMP180;8594;52.052;8.354;2022-09-24T14:00:12;100313.00;;;20.00
16956;BMP180;8594;52.052;8.354;2022-09-24T14:02:51;100319.00;;;19.60
16956;BMP180;8594;52.052;8.354;2022-09-24T14:05:20;100310.00;;;19.90
16956;BMP180;8594;52.052;8.354;2022-09-24T14:08:12;100315.00;;;19.60
16956;BMP180;8594;52.052;8.354;2022-09-24T14:10:40;100322.00;;;19.70
16956;BMP180;8594;52.052;8.354;2022-09-24T14:13:16;100317.00;;;19.90
16956;BMP180;8594;52.052;8.354;2022-09-24T14:15:55;100315.00;;;19.50
16956;BMP180;8594;52.052;8.354;2022-09-24T14:18:26;100322.00;;;19.70
16956;BMP180;8594;52.052;8.354;2022-09-24T14:20:58;100323.00;;;19.40
16956;BMP180;8594;52.052;8.354;2022-09-24T14:23:35;100323.00;;;19.70
16956;BMP180;8594;52.052;8.354;2022-09-24T14:26:04;100321.00;;;19.60
16956;BMP180;8594;52.052;8.354;2022-09-24T14:28:33;100321.00;;;19.40
16956;BMP180;8594;52.052;8.354;2022-09-24T14:31:01;100325.00;;;19.40
16956;BMP180;8594;52.052;8.354;2022-09-24T14:33:31;100321.00;;;19.40
16956;BMP180;8594;52.052;8.354;2022-09-24T14:36:01;100321.00;;;19.70
16956;BMP180;8594;52.052;8.354;2022-09-24T14:38:33;100323.00;;;19.70
16956;BMP180;8594;52.052;8.354;2022-09-24T14:41:05;100323.00;;;19.70
16956;BMP180;8594;52.052;8.354;2022-09-24T14:43:45;100325.00;;;19.70